Time;durP1;ratioP1;P1;durP2;ratioP2;P2;SDS_P1;SDS_P2;PMS_P1;PMS_P2;Temp;Humidity;BMP_temperature;BMP_pressure;BME280_temperature;BME280_humidity;BME280_pressure;Samples;Min_cycle;Max_cycle;Signal;HPM_P1;HPM_P2
2023/08/06 00:00:47;;;;;;;;;;;20.80;82.60;;;;;;4145247;28;20796;-49
2023/08/06 00:03:32;;;;;;;;;;;20.80;82.70;;;;;;4164963;28;19980;-48
2023/08/06 00:06:16;;;;;;;;;;;20.80;82.70;;;;;;4166733;28;19932;-49
2023/08/06 00:08:57;;;;;;;;;;;20.80;83.60;;;;;;4165888;28;20329;-49
2023/08/06 00:11:39;;;;;;;;;;;20.80;82.80;;;;;;4154665;28;19936;-49
2023/08/06 00:14:19;;;;;;;;;;;20.80;82.70;;;;;;4137282;28;19987;-52
2023/08/06 00:17:02;;;;;;;;;;;20.80;82.70;;;;;;4138045;28;19938;-50
2023/08/06 00:19:46;;;;;;;;;;;20.80;82.80;;;;;;4114693;28;19932;-49
2023/08/06 00:22:28;;;;;;;;;;;20.80;82.80;;;;;;4108404;28;20056;-49
2023/08/06 00:25:09;;;;;;;;;;;20.80;82.80;;;;;;4129241;28;20011;-49
2023/08/06 00:27:50;;;;;;;;;;;20.80;82.80;;;;;;4131156;28;19933;-50
2023/08/06 00:30:32;;;;;;;;;;;20.80;83.70;;;;;;4147454;28;19952;-48
2023/08/06 00:33:14;;;;;;;;;;;20.80;82.90;;;;;;4137754;28;20284;-49
2023/08/06 00:35:55;;;;;;;;;;;20.80;82.90;;;;;;4152918;28;20410;-48
2023/08/06 00:38:37;;;;;;;;;;;20.80;82.90;;;;;;4152647;28;19932;-49
2023/08/06 00:41:18;;;;;;;;;;;20.70;82.80;;;;;;4139870;28;20439;-49
2023/08/06 00:44:00;;;;;;;;;;;20.80;82.90;;;;;;4152660;28;20399;-49
2023/08/06 00:46:41;;;;;;;;;;;20.80;82.90;;;;;;4131424;28;19937;-49
2023/08/06 00:49:23;;;;;;;;;;;20.70;82.80;;;;;;4166963;28;20007;-46
2023/08/06 00:52:05;;;;;;;;;;;20.70;82.80;;;;;;4153170;28;19936;-48
2023/08/06 00:54:47;;;;;;;;;;;20.70;82.90;;;;;;4156220;28;20061;-49
2023/08/06 00:57:28;;;;;;;;;;;20.70;82.90;;;;;;4155975;28;19932;-47
2023/08/06 01:00:10;;;;;;;;;;;20.80;83.00;;;;;;4143667;28;20404;-45
2023/08/06 01:02:51;;;;;;;;;;;20.70;83.00;;;;;;4154307;28;19936;-49
2023/08/06 01:05:31;;;;;;;;;;;20.70;83.00;;;;;;4138687;28;19933;-45
2023/08/06 01:08:16;;;;;;;;;;;20.70;83.00;;;;;;4149746;28;20031;-45
2023/08/06 01:11:05;;;;;;;;;;;20.70;83.00;;;;;;4114433;28;19936;-45
2023/08/06 01:13:49;;;;;;;;;;;20.70;83.00;;;;;;4131458;28;20035;-47
2023/08/06 01:16:31;;;;;;;;;;;20.70;83.00;;;;;;4154618;28;19932;-45
2023/08/06 01:19:17;;;;;;;;;;;20.70;83.10;;;;;;4164197;28;20403;-48
2023/08/06 01:21:59;;;;;;;;;;;20.70;83.10;;;;;;4132247;28;19936;-47
2023/08/06 01:24:41;;;;;;;;;;;20.70;83.10;;;;;;4131042;28;19947;-46
2023/08/06 01:27:26;;;;;;;;;;;20.70;83.10;;;;;;4131605;28;20007;-46
2023/08/06 01:30:10;;;;;;;;;;;20.70;83.10;;;;;;4154834;28;19936;-45
2023/08/06 01:32:54;;;;;;;;;;;20.70;83.10;;;;;;4143187;28;20395;-45
2023/08/06 01:35:36;;;;;;;;;;;20.70;83.20;;;;;;4155336;28;19932;-45
2023/08/06 01:38:18;;;;;;;;;;;20.60;83.20;;;;;;4154975;28;19936;-45
2023/08/06 01:40:59;;;;;;;;;;;20.60;83.20;;;;;;4153120;28;20475;-45
2023/08/06 01:43:40;;;;;;;;;;;20.60;83.20;;;;;;4154916;28;20491;-46
2023/08/06 01:46:20;;;;;;;;;;;20.60;84.10;;;;;;4142038;28;19975;-49
2023/08/06 01:49:01;;;;;;;;;;;20.70;83.30;;;;;;4138833;28;19952;-45
2023/08/06 01:51:42;;;;;;;;;;;20.60;83.20;;;;;;4125607;28;19932;-49
2023/08/06 01:54:24;;;;;;;;;;;20.60;84.10;;;;;;4122883;28;19936;-48
2023/08/06 01:57:05;;;;;;;;;;;20.60;83.20;;;;;;4167381;28;20656;-46
2023/08/06 01:59:46;;;;;;;;;;;20.60;83.40;;;;;;4154329;28;20019;-47
2023/08/06 02:02:27;;;;;;;;;;;20.60;83.30;;;;;;4125713;28;19936;-45
2023/08/06 02:05:08;;;;;;;;;;;20.60;83.30;;;;;;4137378;28;20028;-48
2023/08/06 02:07:49;;;;;;;;;;;20.60;83.30;;;;;;4148460;28;19935;-47
2023/08/06 02:10:31;;;;;;;;;;;20.60;83.40;;;;;;4158640;28;19935;-47
2023/08/06 02:13:12;;;;;;;;;;;20.60;83.40;;;;;;4147683;28;20399;-49
2023/08/06 02:15:53;;;;;;;;;;;20.60;83.40;;;;;;4126345;28;19936;-45
2023/08/06 02:18:34;;;;;;;;;;;20.60;83.40;;;;;;4138415;28;19995;-47
2023/08/06 02:21:14;;;;;;;;;;;20.60;83.40;;;;;;4154456;28;19994;-48
2023/08/06 02:23:55;;;;;;;;;;;20.60;83.40;;;;;;4140873;28;19990;-48
2023/08/06 02:26:37;;;;;;;;;;;20.60;83.40;;;;;;4150199;28;20060;-46
2023/08/06 02:29:18;;;;;;;;;;;20.60;83.40;;;;;;4153423;28;19993;-49
2023/08/06 02:32:01;;;;;;;;;;;20.60;83.50;;;;;;4164632;28;20406;-49
2023/08/06 02:34:41;;;;;;;;;;;20.60;83.70;;;;;;4142993;28;20015;-46
2023/08/06 02:37:22;;;;;;;;;;;20.60;83.70;;;;;;4153525;28;19936;-46
2023/08/06 02:40:04;;;;;;;;;;;20.60;83.70;;;;;;4150686;28;19940;-48
2023/08/06 02:42:45;;;;;;;;;;;20.60;83.70;;;;;;4153746;28;19933;-46
2023/08/06 02:45:27;;;;;;;;;;;20.60;83.70;;;;;;4165117;28;20014;-47
2023/08/06 02:48:08;;;;;;;;;;;20.60;83.70;;;;;;4132952;28;19933;-48
2023/08/06 02:50:49;;;;;;;;;;;20.60;83.70;;;;;;4124828;28;19933;-48
2023/08/06 02:53:29;;;;;;;;;;;20.60;83.70;;;;;;4125779;28;19935;-48
2023/08/06 02:56:13;;;;;;;;;;;20.60;83.70;;;;;;4125928;28;20426;-48
2023/08/06 02:59:07;;;;;;;;;;;20.50;83.60;;;;;;4152471;28;20082;-45
2023/08/06 03:02:00;;;;;;;;;;;20.60;83.70;;;;;;4141914;28;19936;-46
2023/08/06 03:04:50;;;;;;;;;;;20.60;83.70;;;;;;4141808;28;20284;-48
2023/08/06 03:07:36;;;;;;;;;;;20.50;83.60;;;;;;4153209;28;19936;-46
2023/08/06 03:10:23;;;;;;;;;;;20.50;83.60;;;;;;4150440;28;19932;-45
2023/08/06 03:13:06;;;;;;;;;;;20.50;84.50;;;;;;4151824;28;20376;-46
2023/08/06 03:15:54;;;;;;;;;;;20.50;83.70;;;;;;4158078;28;20388;-46
2023/08/06 03:18:35;;;;;;;;;;;20.50;83.80;;;;;;4153222;28;19932;-49
2023/08/06 03:21:19;;;;;;;;;;;20.50;83.80;;;;;;4151744;28;19932;-46
2023/08/06 03:24:00;;;;;;;;;;;20.50;83.80;;;;;;4150448;28;19982;-49
2023/08/06 03:26:44;;;;;;;;;;;20.50;83.80;;;;;;4137081;28;19990;-49
2023/08/06 03:29:25;;;;;;;;;;;20.50;83.80;;;;;;4157955;28;20283;-49
2023/08/06 03:32:08;;;;;;;;;;;20.50;83.90;;;;;;4169027;28;19932;-49
2023/08/06 03:34:50;;;;;;;;;;;20.50;83.90;;;;;;4152844;28;20248;-46
2023/08/06 03:37:31;;;;;;;;;;;20.50;84.00;;;;;;4147538;28;19936;-48
2023/08/06 03:40:12;;;;;;;;;;;20.50;84.00;;;;;;4154068;28;19952;-47
2023/08/06 03:42:52;;;;;;;;;;;20.50;84.00;;;;;;4153557;28;19936;-46
2023/08/06 03:45:34;;;;;;;;;;;20.50;84.00;;;;;;4138135;28;20074;-48
2023/08/06 03:48:16;;;;;;;;;;;20.50;84.00;;;;;;4141627;28;20391;-45
2023/08/06 03:50:57;;;;;;;;;;;20.40;84.00;;;;;;4152327;28;19940;-46
2023/08/06 03:53:39;;;;;;;;;;;20.50;84.10;;;;;;4139609;28;20047;-50
2023/08/06 03:56:20;;;;;;;;;;;20.50;84.20;;;;;;4157255;28;20410;-49
2023/08/06 03:59:02;;;;;;;;;;;20.40;84.20;;;;;;4169482;28;19939;-52
2023/08/06 04:01:43;;;;;;;;;;;20.50;84.20;;;;;;4121440;28;19963;-52
2023/08/06 04:04:25;;;;;;;;;;;20.40;84.20;;;;;;4159014;28;19936;-52
2023/08/06 04:07:06;;;;;;;;;;;20.50;84.20;;;;;;4153009;28;20324;-53
2023/08/06 04:09:54;;;;;;;;;;;20.40;84.30;;;;;;4153052;28;19936;-52
2023/08/06 04:12:36;;;;;;;;;;;20.40;84.20;;;;;;4156075;28;19933;-51
2023/08/06 04:15:17;;;;;;;;;;;20.40;85.10;;;;;;4156356;28;19940;-52
2023/08/06 04:17:57;;;;;;;;;;;20.40;84.30;;;;;;4155073;28;20132;-53
2023/08/06 04:20:45;;;;;;;;;;;20.40;84.40;;;;;;4154913;28;19932;-50
2023/08/06 04:23:26;;;;;;;;;;;20.40;84.40;;;;;;4130255;28;19932;-48
2023/08/06 04:26:10;;;;;;;;;;;20.40;84.50;;;;;;4154410;28;19936;-49
2023/08/06 04:28:51;;;;;;;;;;;20.40;84.40;;;;;;4156174;28;19960;-52
2023/08/06 04:31:33;;;;;;;;;;;20.40;84.40;;;;;;4155856;28;19932;-48
2023/08/06 04:34:14;;;;;;;;;;;20.40;84.40;;;;;;4141179;28;19936;-51
2023/08/06 04:36:56;;;;;;;;;;;20.40;84.40;;;;;;4160894;28;19939;-52
2023/08/06 04:39:37;;;;;;;;;;;20.40;84.50;;;;;;4159344;28;20272;-49
2023/08/06 04:42:18;;;;;;;;;;;20.40;84.50;;;;;;4144243;28;19936;-50
2023/08/06 04:45:01;;;;;;;;;;;20.40;84.50;;;;;;4127506;28;19975;-52
2023/08/06 04:47:43;;;;;;;;;;;20.30;84.50;;;;;;4138583;28;19936;-51
2023/08/06 04:50:24;;;;;;;;;;;20.40;84.60;;;;;;4139499;28;20035;-49
2023/08/06 04:53:06;;;;;;;;;;;20.40;84.70;;;;;;4139594;28;19932;-49
2023/08/06 04:55:48;;;;;;;;;;;20.30;84.60;;;;;;4154113;28;19968;-52
2023/08/06 04:58:28;;;;;;;;;;;20.40;84.70;;;;;;4155704;28;19932;-53
2023/08/06 05:01:09;;;;;;;;;;;20.30;84.60;;;;;;4156175;28;19975;-50
2023/08/06 05:03:50;;;;;;;;;;;20.30;84.70;;;;;;4155771;28;19932;-51
2023/08/06 05:06:30;;;;;;;;;;;20.30;84.70;;;;;;4155651;28;19982;-48
2023/08/06 05:09:12;;;;;;;;;;;20.30;84.70;;;;;;4155330;28;20503;-48
2023/08/06 05:11:53;;;;;;;;;;;20.30;84.80;;;;;;4142705;28;19936;-49
2023/08/06 05:14:34;;;;;;;;;;;20.30;84.70;;;;;;4158023;28;20080;-44
2023/08/06 05:17:15;;;;;;;;;;;20.30;84.80;;;;;;4139898;28;20395;-48
2023/08/06 05:19:56;;;;;;;;;;;20.40;85.10;;;;;;4155984;28;19944;-47
2023/08/06 05:22:37;;;;;;;;;;;20.40;85.20;;;;;;4152949;28;20079;-50
2023/08/06 05:25:19;;;;;;;;;;;20.50;86.10;;;;;;4154633;28;20292;-50
2023/08/06 05:28:01;;;;;;;;;;;20.50;85.20;;;;;;4155132;28;19947;-51
2023/08/06 05:30:42;;;;;;;;;;;20.40;85.00;;;;;;4155177;28;19948;-50
2023/08/06 05:33:23;;;;;;;;;;;20.40;85.90;;;;;;4154650;28;20288;-52
2023/08/06 05:36:04;;;;;;;;;;;20.40;85.00;;;;;;4146372;28;19936;-48
2023/08/06 05:38:44;;;;;;;;;;;20.40;85.00;;;;;;4152516;28;19931;-50
2023/08/06 05:41:27;;;;;;;;;;;20.40;84.90;;;;;;4154349;28;19932;-53
2023/08/06 05:44:08;;;;;;;;;;;20.50;84.90;;;;;;4163732;28;19940;-51
2023/08/06 05:46:49;;;;;;;;;;;20.50;84.80;;;;;;4155772;28;19948;-51
2023/08/06 05:49:30;;;;;;;;;;;20.50;84.80;;;;;;4154840;28;19948;-52
2023/08/06 05:52:11;;;;;;;;;;;20.50;85.70;;;;;;4142246;28;19936;-49
2023/08/06 05:54:52;;;;;;;;;;;20.50;84.80;;;;;;4142951;28;20732;-46
2023/08/06 05:57:34;;;;;;;;;;;20.50;84.80;;;;;;4171667;28;20292;-49
2023/08/06 06:00:15;;;;;;;;;;;20.50;84.80;;;;;;4151617;28;20079;-49
2023/08/06 06:02:58;;;;;;;;;;;20.40;84.80;;;;;;4163369;28;19936;-48
2023/08/06 06:05:39;;;;;;;;;;;20.40;84.80;;;;;;4129266;28;19937;-48
2023/08/06 06:08:20;;;;;;;;;;;20.50;84.80;;;;;;4133014;28;20409;-46
2023/08/06 06:11:01;;;;;;;;;;;20.40;84.80;;;;;;4154512;28;19990;-46
2023/08/06 06:13:43;;;;;;;;;;;20.40;84.80;;;;;;4153041;28;20283;-46
2023/08/06 06:16:24;;;;;;;;;;;20.40;84.80;;;;;;4154962;28;20279;-45
2023/08/06 06:19:05;;;;;;;;;;;20.40;84.80;;;;;;4149794;28;19936;-47
2023/08/06 06:21:45;;;;;;;;;;;20.40;84.70;;;;;;4145562;28;20338;-46
2023/08/06 06:24:26;;;;;;;;;;;20.40;84.80;;;;;;4158774;28;20343;-46
2023/08/06 06:27:07;;;;;;;;;;;20.40;84.80;;;;;;4148108;28;20293;-44
2023/08/06 06:29:49;;;;;;;;;;;20.50;84.90;;;;;;4121812;28;19933;-44
2023/08/06 06:32:30;;;;;;;;;;;20.50;84.80;;;;;;4123653;28;19948;-45
2023/08/06 06:35:10;;;;;;;;;;;20.40;84.80;;;;;;4137858;28;19948;-46
2023/08/06 06:37:52;;;;;;;;;;;20.40;84.70;;;;;;4140987;28;19936;-43
2023/08/06 06:40:33;;;;;;;;;;;20.40;84.70;;;;;;4152090;28;19967;-47
2023/08/06 06:43:13;;;;;;;;;;;20.40;84.60;;;;;;4170525;28;19932;-43
2023/08/06 06:45:57;;;;;;;;;;;20.40;84.60;;;;;;4150924;28;19936;-45
2023/08/06 06:48:37;;;;;;;;;;;20.40;84.70;;;;;;4138180;28;19937;-45
2023/08/06 06:51:18;;;;;;;;;;;20.40;84.80;;;;;;4145624;28;19967;-43
2023/08/06 06:53:59;;;;;;;;;;;20.50;84.80;;;;;;4158336;28;19936;-46
2023/08/06 06:56:39;;;;;;;;;;;20.50;84.90;;;;;;4148917;28;20037;-42
2023/08/06 06:59:20;;;;;;;;;;;20.60;84.90;;;;;;4138186;28;19936;-44
2023/08/06 07:02:02;;;;;;;;;;;20.60;85.00;;;;;;4152211;28;20114;-46
2023/08/06 07:04:43;;;;;;;;;;;20.70;85.10;;;;;;4134548;28;20067;-47
2023/08/06 07:07:24;;;;;;;;;;;20.70;85.00;;;;;;4138746;28;19933;-47
2023/08/06 07:10:06;;;;;;;;;;;20.70;84.90;;;;;;4171230;28;19931;-49
2023/08/06 07:12:46;;;;;;;;;;;20.70;84.90;;;;;;4153386;28;19936;-42
2023/08/06 07:15:27;;;;;;;;;;;20.70;84.80;;;;;;4137411;28;20095;-44
2023/08/06 07:18:09;;;;;;;;;;;20.70;84.80;;;;;;4137838;28;19932;-44
2023/08/06 07:20:50;;;;;;;;;;;20.70;84.80;;;;;;4144084;28;20336;-43
2023/08/06 07:23:31;;;;;;;;;;;20.70;84.90;;;;;;4157665;28;20074;-43
2023/08/06 07:26:12;;;;;;;;;;;20.70;84.90;;;;;;4141142;28;19940;-44
2023/08/06 07:28:52;;;;;;;;;;;20.70;84.90;;;;;;4154435;28;19932;-45
2023/08/06 07:31:33;;;;;;;;;;;20.70;84.80;;;;;;4144371;28;19936;-44
2023/08/06 07:34:15;;;;;;;;;;;20.70;84.80;;;;;;4151348;28;20114;-47
2023/08/06 07:36:56;;;;;;;;;;;20.80;84.80;;;;;;4151107;28;20387;-50
2023/08/06 07:39:37;;;;;;;;;;;20.80;84.90;;;;;;4137369;28;20011;-45
2023/08/06 07:42:20;;;;;;;;;;;20.80;84.60;;;;;;4121786;28;19933;-43
2023/08/06 07:45:01;;;;;;;;;;;20.80;84.60;;;;;;4144982;28;20391;-45
2023/08/06 07:47:42;;;;;;;;;;;20.80;84.60;;;;;;4154776;28;20014;-43
2023/08/06 07:50:25;;;;;;;;;;;20.80;84.50;;;;;;4143606;28;19932;-44
2023/08/06 07:53:06;;;;;;;;;;;20.80;84.40;;;;;;4136802;28;20315;-43
2023/08/06 07:55:48;;;;;;;;;;;20.80;84.40;;;;;;4142669;28;19932;-43
2023/08/06 07:58:30;;;;;;;;;;;20.80;84.40;;;;;;4156212;28;19936;-45
2023/08/06 08:01:10;;;;;;;;;;;20.80;84.30;;;;;;4156958;28;19952;-43
2023/08/06 08:03:51;;;;;;;;;;;20.80;84.20;;;;;;4155527;28;19947;-44
2023/08/06 08:06:34;;;;;;;;;;;20.80;84.20;;;;;;4144409;28;19935;-44
2023/08/06 08:09:14;;;;;;;;;;;20.90;84.30;;;;;;4156716;28;20292;-43
2023/08/06 08:11:56;;;;;;;;;;;20.90;84.40;;;;;;4156830;28;19932;-44
2023/08/06 08:14:40;;;;;;;;;;;20.80;84.30;;;;;;4140939;28;19932;-46
2023/08/06 08:17:21;;;;;;;;;;;20.90;84.40;;;;;;4156328;28;19932;-43
2023/08/06 08:20:02;;;;;;;;;;;20.90;84.40;;;;;;4141133;28;20015;-43
2023/08/06 08:22:44;;;;;;;;;;;20.90;84.30;;;;;;4140700;28;19936;-44
2023/08/06 08:25:25;;;;;;;;;;;20.90;84.30;;;;;;4149406;28;19932;-46
2023/08/06 08:28:06;;;;;;;;;;;20.90;84.30;;;;;;4155389;28;19936;-44
2023/08/06 08:30:47;;;;;;;;;;;20.90;84.30;;;;;;4127541;28;19936;-43
2023/08/06 08:33:28;;;;;;;;;;;21.00;84.50;;;;;;4130873;28;19932;-54
2023/08/06 08:36:09;;;;;;;;;;;21.00;84.50;;;;;;4154038;28;19963;-46
2023/08/06 08:38:53;;;;;;;;;;;21.00;84.40;;;;;;4156128;28;20026;-44
2023/08/06 08:41:34;;;;;;;;;;;21.00;84.30;;;;;;4156439;28;19936;-43
2023/08/06 08:44:17;;;;;;;;;;;21.00;84.30;;;;;;4155823;28;20396;-44
2023/08/06 08:46:58;;;;;;;;;;;21.10;84.40;;;;;;4154337;28;20588;-45
2023/08/06 08:49:39;;;;;;;;;;;21.10;84.50;;;;;;4151723;28;20411;-46
2023/08/06 08:52:21;;;;;;;;;;;21.10;84.70;;;;;;4137293;28;20060;-45
2023/08/06 08:55:03;;;;;;;;;;;21.20;84.40;;;;;;4127094;28;19964;-44
2023/08/06 08:57:44;;;;;;;;;;;21.20;84.00;;;;;;4139029;28;19932;-44
2023/08/06 09:00:25;;;;;;;;;;;21.30;84.80;;;;;;4148552;28;19952;-44
2023/08/06 09:03:07;;;;;;;;;;;21.30;83.50;;;;;;4152466;28;19936;-43
2023/08/06 09:05:50;;;;;;;;;;;21.30;83.10;;;;;;4147401;28;19953;-44
2023/08/06 09:08:34;;;;;;;;;;;21.30;83.00;;;;;;4145987;28;19932;-45
2023/08/06 09:11:17;;;;;;;;;;;21.40;83.00;;;;;;4142922;28;19944;-43
2023/08/06 09:13:58;;;;;;;;;;;21.30;83.00;;;;;;4155401;28;19972;-46
2023/08/06 09:16:38;;;;;;;;;;;21.40;82.60;;;;;;4154936;28;19936;-47
2023/08/06 09:19:23;;;;;;;;;;;21.40;82.10;;;;;;4090820;28;20312;-43
2023/08/06 09:22:13;;;;;;;;;;;21.40;81.10;;;;;;4172289;28;19931;-49
2023/08/06 09:24:56;;;;;;;;;;;21.50;80.50;;;;;;4172428;28;20298;-43
2023/08/06 09:27:38;;;;;;;;;;;21.50;80.20;;;;;;4166309;28;19936;-47
2023/08/06 09:30:30;;;;;;;;;;;21.50;80.10;;;;;;4153103;28;19952;-47
2023/08/06 09:33:11;;;;;;;;;;;21.60;79.30;;;;;;4155380;28;20422;-44
2023/08/06 09:35:53;;;;;;;;;;;21.60;78.90;;;;;;4155696;28;19932;-46
2023/08/06 09:38:38;;;;;;;;;;;21.60;78.50;;;;;;4153212;28;19936;-46
2023/08/06 09:41:27;;;;;;;;;;;21.60;77.80;;;;;;4140879;28;20018;-45
2023/08/06 09:44:15;;;;;;;;;;;21.70;77.30;;;;;;4151741;28;20268;-45
2023/08/06 09:46:57;;;;;;;;;;;21.70;77.10;;;;;;4153629;28;19983;-48
2023/08/06 09:49:42;;;;;;;;;;;21.70;75.90;;;;;;4152595;28;19936;-43
2023/08/06 09:52:23;;;;;;;;;;;21.80;75.90;;;;;;4168090;28;20299;-48
2023/08/06 09:55:05;;;;;;;;;;;21.70;75.80;;;;;;4151517;28;20453;-70
2023/08/06 09:58:25;;;;;;;;;;;21.80;75.90;;;;;;4142552;28;19936;-50
2023/08/06 10:01:09;;;;;;;;;;;21.80;75.40;;;;;;4159112;28;19936;-46
2023/08/06 10:03:50;;;;;;;;;;;21.80;75.60;;;;;;4128982;28;20297;-45
2023/08/06 10:06:34;;;;;;;;;;;21.80;75.40;;;;;;4138909;28;19932;-47
2023/08/06 10:09:15;;;;;;;;;;;21.80;75.20;;;;;;4136665;28;20285;-44
2023/08/06 10:11:57;;;;;;;;;;;21.90;75.30;;;;;;4138975;28;19948;-45
2023/08/06 10:14:39;;;;;;;;;;;21.90;75.10;;;;;;4149856;28;19935;-46
2023/08/06 10:17:22;;;;;;;;;;;21.90;74.90;;;;;;4172067;28;19936;-45
2023/08/06 10:20:07;;;;;;;;;;;21.90;74.70;;;;;;4166061;28;20404;-45
2023/08/06 10:23:00;;;;;;;;;;;21.90;74.70;;;;;;4146880;28;19936;-49
2023/08/06 10:25:42;;;;;;;;;;;21.90;75.20;;;;;;4139291;28;20002;-44
2023/08/06 10:28:22;;;;;;;;;;;22.00;75.00;;;;;;4153216;28;19936;-44
2023/08/06 10:31:04;;;;;;;;;;;22.00;74.60;;;;;;4149872;28;20043;-42
2023/08/06 10:33:47;;;;;;;;;;;22.00;74.80;;;;;;4150066;28;20616;-43
2023/08/06 10:36:28;;;;;;;;;;;22.00;74.70;;;;;;4138924;28;19936;-46
2023/08/06 10:39:14;;;;;;;;;;;22.10;74.80;;;;;;4135357;28;19936;-44
2023/08/06 10:42:05;;;;;;;;;;;22.10;74.80;;;;;;4150951;28;19932;-39
2023/08/06 10:45:02;;;;;;;;;;;22.10;74.70;;;;;;4125928;28;19983;-39
2023/08/06 10:47:46;;;;;;;;;;;22.10;75.10;;;;;;4112126;28;19936;-39
2023/08/06 10:50:28;;;;;;;;;;;22.20;74.90;;;;;;4148385;28;19932;-39
2023/08/06 10:53:11;;;;;;;;;;;22.20;75.10;;;;;;4141716;28;19936;-39
2023/08/06 10:55:52;;;;;;;;;;;22.20;74.30;;;;;;4139013;28;20388;-40
2023/08/06 10:58:34;;;;;;;;;;;22.20;74.60;;;;;;4153772;28;20312;-40
2023/08/06 11:01:15;;;;;;;;;;;22.20;75.00;;;;;;4154923;28;19936;-51
2023/08/06 11:03:56;;;;;;;;;;;22.20;73.30;;;;;;4154812;28;19960;-48
2023/08/06 11:06:38;;;;;;;;;;;22.20;73.10;;;;;;4153748;28;20056;-47
2023/08/06 11:09:19;;;;;;;;;;;22.20;73.80;;;;;;4134876;28;19933;-46
2023/08/06 11:11:59;;;;;;;;;;;22.20;73.10;;;;;;4138220;28;19979;-44
2023/08/06 11:14:40;;;;;;;;;;;22.20;72.70;;;;;;4138894;28;19941;-47
2023/08/06 11:17:21;;;;;;;;;;;22.20;73.00;;;;;;4140456;28;19936;-48
2023/08/06 11:20:02;;;;;;;;;;;22.20;72.90;;;;;;4140296;28;20040;-39
2023/08/06 11:22:45;;;;;;;;;;;22.20;72.80;;;;;;4148955;28;19952;-39
2023/08/06 11:25:25;;;;;;;;;;;22.30;72.80;;;;;;4154694;28;19935;-39
2023/08/06 11:28:06;;;;;;;;;;;22.30;72.50;;;;;;4154607;28;19936;-39
2023/08/06 11:30:47;;;;;;;;;;;22.30;71.80;;;;;;4155065;28;19932;-39
2023/08/06 11:33:29;;;;;;;;;;;22.30;71.60;;;;;;4146393;28;20399;-39
2023/08/06 11:36:10;;;;;;;;;;;22.30;72.10;;;;;;4149035;28;20075;-39
2023/08/06 11:38:52;;;;;;;;;;;22.40;71.80;;;;;;4114554;28;19937;-39
2023/08/06 11:41:33;;;;;;;;;;;22.40;71.50;;;;;;4137106;28;20069;-39
2023/08/06 11:44:14;;;;;;;;;;;22.40;71.20;;;;;;4138070;28;19931;-40
2023/08/06 11:46:59;;;;;;;;;;;22.40;71.30;;;;;;4134180;28;20690;-39
2023/08/06 11:49:44;;;;;;;;;;;22.40;71.00;;;;;;4079826;28;19952;-40
2023/08/06 11:52:25;;;;;;;;;;;22.40;71.00;;;;;;4098684;28;20690;-44
2023/08/06 11:55:10;;;;;;;;;;;22.40;71.00;;;;;;4152529;28;20296;-44
2023/08/06 11:57:50;;;;;;;;;;;22.40;70.90;;;;;;4152901;28;19936;-45
2023/08/06 12:00:33;;;;;;;;;;;22.40;70.70;;;;;;4154338;28;20465;-44
2023/08/06 12:03:14;;;;;;;;;;;22.40;71.40;;;;;;4139486;28;19936;-45
2023/08/06 12:05:57;;;;;;;;;;;22.40;70.50;;;;;;4158531;28;20356;-50
2023/08/06 12:08:38;;;;;;;;;;;22.40;70.40;;;;;;4139362;28;20368;-47
2023/08/06 12:11:22;;;;;;;;;;;22.40;71.20;;;;;;4141331;28;20438;-39
2023/08/06 12:14:02;;;;;;;;;;;22.50;70.20;;;;;;4152188;28;19982;-39
2023/08/06 12:16:43;;;;;;;;;;;22.50;70.20;;;;;;4151672;28;19955;-39
2023/08/06 12:19:24;;;;;;;;;;;22.50;70.20;;;;;;4118591;28;19951;-39
2023/08/06 12:22:08;;;;;;;;;;;22.50;70.20;;;;;;4153791;28;20491;-40
2023/08/06 12:24:49;;;;;;;;;;;22.50;69.90;;;;;;4151910;28;19936;-39
2023/08/06 12:27:31;;;;;;;;;;;22.50;70.00;;;;;;4137711;28;20095;-39
2023/08/06 12:30:13;;;;;;;;;;;22.60;70.10;;;;;;4126194;28;19937;-40
2023/08/06 12:32:54;;;;;;;;;;;22.50;69.90;;;;;;4159468;28;20476;-39
2023/08/06 12:35:34;;;;;;;;;;;22.50;69.70;;;;;;4157216;28;19936;-40
2023/08/06 12:38:15;;;;;;;;;;;22.60;69.60;;;;;;4157002;28;20018;-40
2023/08/06 12:40:56;;;;;;;;;;;22.60;69.60;;;;;;4156610;28;20067;-39
2023/08/06 12:43:38;;;;;;;;;;;22.60;69.50;;;;;;4147858;28;20067;-40
2023/08/06 12:46:18;;;;;;;;;;;22.60;69.70;;;;;;4156797;28;19936;-40
2023/08/06 12:48:59;;;;;;;;;;;22.60;69.70;;;;;;4156428;28;19947;-39
2023/08/06 12:51:40;;;;;;;;;;;22.60;69.80;;;;;;4127900;28;19989;-40
2023/08/06 12:54:21;;;;;;;;;;;22.60;69.70;;;;;;4166587;28;20030;-39
2023/08/06 12:57:02;;;;;;;;;;;22.60;69.70;;;;;;4155656;28;19940;-40
2023/08/06 12:59:44;;;;;;;;;;;22.60;69.60;;;;;;4156797;28;19936;-40
2023/08/06 13:02:29;;;;;;;;;;;22.60;69.50;;;;;;4155803;28;20300;-40
2023/08/06 13:05:11;;;;;;;;;;;22.60;69.60;;;;;;4155635;28;24236;-40
2023/08/06 13:07:53;;;;;;;;;;;22.60;69.50;;;;;;4156341;28;19933;-40
2023/08/06 13:10:33;;;;;;;;;;;22.60;69.60;;;;;;4155087;28;19936;-40
2023/08/06 13:13:14;;;;;;;;;;;22.60;69.70;;;;;;4156387;28;20071;-40
2023/08/06 13:15:56;;;;;;;;;;;22.60;69.80;;;;;;4156184;28;20399;-40
2023/08/06 13:18:36;;;;;;;;;;;22.60;69.80;;;;;;4156368;28;20450;-40
2023/08/06 13:21:17;;;;;;;;;;;22.60;69.90;;;;;;4149468;28;19932;-39
2023/08/06 13:23:58;;;;;;;;;;;22.70;69.90;;;;;;4139379;28;19948;-45
2023/08/06 13:26:39;;;;;;;;;;;22.60;69.90;;;;;;4148054;28;20272;-44
2023/08/06 13:29:20;;;;;;;;;;;22.60;70.00;;;;;;4154704;28;20098;-44
2023/08/06 13:32:02;;;;;;;;;;;22.70;70.10;;;;;;4154983;28;20006;-44
2023/08/06 13:34:43;;;;;;;;;;;22.70;70.00;;;;;;4154746;28;19936;-40
2023/08/06 13:37:23;;;;;;;;;;;22.60;70.00;;;;;;4156074;28;20388;-41
2023/08/06 13:40:05;;;;;;;;;;;22.70;71.00;;;;;;4155826;28;19936;-41
2023/08/06 13:42:45;;;;;;;;;;;22.70;70.00;;;;;;4146857;28;19931;-40
2023/08/06 13:45:26;;;;;;;;;;;22.70;70.00;;;;;;4155884;28;19936;-41
2023/08/06 13:48:10;;;;;;;;;;;22.70;70.00;;;;;;4154818;28;19932;-41
2023/08/06 13:50:50;;;;;;;;;;;22.70;70.00;;;;;;4153951;28;19932;-40
2023/08/06 13:53:31;;;;;;;;;;;22.70;70.10;;;;;;4143340;28;19944;-40
2023/08/06 13:56:14;;;;;;;;;;;22.70;70.10;;;;;;4154762;28;20003;-41
2023/08/06 13:58:55;;;;;;;;;;;22.70;70.10;;;;;;4154359;28;19932;-44
2023/08/06 14:01:36;;;;;;;;;;;22.70;70.20;;;;;;4153845;28;20030;-46
2023/08/06 14:04:31;;;;;;;;;;;22.70;70.30;;;;;;4145237;28;19937;-46
2023/08/06 14:07:12;;;;;;;;;;;22.70;70.30;;;;;;4111317;28;19933;-45
2023/08/06 14:09:53;;;;;;;;;;;22.70;70.20;;;;;;4139543;28;20027;-48
2023/08/06 14:12:34;;;;;;;;;;;22.70;70.10;;;;;;4125733;28;19933;-48
2023/08/06 14:15:14;;;;;;;;;;;22.70;70.00;;;;;;4118452;28;20385;-49
2023/08/06 14:17:55;;;;;;;;;;;22.70;69.90;;;;;;4121590;28;20443;-48
2023/08/06 14:20:37;;;;;;;;;;;22.70;69.50;;;;;;4122131;28;19936;-46
2023/08/06 14:23:18;;;;;;;;;;;22.70;69.70;;;;;;4121659;28;19936;-48
2023/08/06 14:25:58;;;;;;;;;;;22.70;69.60;;;;;;4116624;28;20277;-49
2023/08/06 14:28:39;;;;;;;;;;;22.70;68.90;;;;;;4119766;28;19949;-46
2023/08/06 14:31:20;;;;;;;;;;;22.70;68.90;;;;;;4120386;28;19940;-41
2023/08/06 14:34:00;;;;;;;;;;;22.80;69.20;;;;;;4118262;28;19991;-44
2023/08/06 14:36:43;;;;;;;;;;;22.80;69.40;;;;;;4122414;28;20307;-44
2023/08/06 14:39:23;;;;;;;;;;;22.80;69.10;;;;;;4120198;28;20064;-47
2023/08/06 14:42:04;;;;;;;;;;;22.80;69.30;;;;;;4109004;28;19988;-44
2023/08/06 14:44:45;;;;;;;;;;;22.80;69.30;;;;;;4103752;28;20020;-48
2023/08/06 14:47:25;;;;;;;;;;;22.80;69.40;;;;;;4118426;28;19937;-44
2023/08/06 14:50:07;;;;;;;;;;;22.80;70.10;;;;;;4120338;28;20023;-49
2023/08/06 14:52:49;;;;;;;;;;;22.80;69.20;;;;;;4118127;28;20007;-45
2023/08/06 14:55:30;;;;;;;;;;;22.80;69.30;;;;;;4120405;28;19937;-40
2023/08/06 14:58:11;;;;;;;;;;;22.80;69.20;;;;;;4082684;28;20015;-40
2023/08/06 15:00:52;;;;;;;;;;;22.80;69.00;;;;;;4115579;28;19937;-40
2023/08/06 15:03:33;;;;;;;;;;;22.80;69.00;;;;;;4128867;28;19968;-41
2023/08/06 15:06:14;;;;;;;;;;;22.90;69.00;;;;;;4153030;28;19998;-40
2023/08/06 15:09:00;;;;;;;;;;;22.90;69.00;;;;;;4139406;28;19936;-41
2023/08/06 15:11:41;;;;;;;;;;;22.90;68.90;;;;;;4153419;28;19931;-41
2023/08/06 15:14:22;;;;;;;;;;;22.90;68.70;;;;;;4136269;28;19940;-40
2023/08/06 15:17:03;;;;;;;;;;;22.90;68.90;;;;;;4151364;28;19941;-40
2023/08/06 15:19:43;;;;;;;;;;;22.90;68.90;;;;;;4151570;28;20064;-41
2023/08/06 15:22:24;;;;;;;;;;;22.90;69.00;;;;;;4143365;28;20300;-41
2023/08/06 15:25:07;;;;;;;;;;;22.90;68.90;;;;;;4148701;28;19935;-40
2023/08/06 15:27:48;;;;;;;;;;;22.90;68.90;;;;;;4138835;28;19932;-41
2023/08/06 15:30:29;;;;;;;;;;;22.90;69.00;;;;;;4145763;28;19980;-41
2023/08/06 15:33:10;;;;;;;;;;;22.90;69.10;;;;;;4152311;28;20273;-40
2023/08/06 15:35:51;;;;;;;;;;;22.90;69.30;;;;;;4139288;28;19975;-41
2023/08/06 15:38:32;;;;;;;;;;;22.90;70.10;;;;;;4152952;28;20018;-40
2023/08/06 15:41:15;;;;;;;;;;;22.90;69.30;;;;;;4136654;28;19932;-40